Contact.

Fly & Fun

Aérodrome de Reims-Prunay

51360 Prunay

Hangar : 03 26 61 05 94

Réservations : 06 73 72 56 28

contact@flyandfun.fr



    Ici la base.

    Implantée sur l’aérodrome de Reims-Prunay, Fly&Fun et ses membres profitent de la région champenoise pour voler dans un cadre exceptionnel et partager cette ferveur commune autour de l’aéronautique.

    ouvrir google map

    Social Wall.

    Facebook.
    Comments Box SVG iconsUsed for the like, share, comment, and reaction icons
    METAR :

    LFQA 021400Z AUTO 33005KT 300V020 9999 FEW038/// BKN054/// BKN094/// ///TCU 22/13 Q1014


    vue en direct sur l'aérodrome
    mentions légales politique de confidentialité
    Cochet Concept
    cx